Sagres, Portugal

5:02 AM WEST on August 22, 2014 (GMT +0100)
IFAROVAL2 | Change Station
CLOSE
Current Station
Personal Weather Station
Location: Vales, Aljezur, FARO
Elevation: 361 ft
Nearby Weather Stations

Elev 361 ft 37.29 °N, 8.84 °W | Updated 46 seconds ago

Clear
Clear
63.0 °F
Feels Like 63.0 °F
N
0.0
Wind Variable Wind from NNE
Gusts 0.0 mph

Today
High -- | Low -- °F
--% Chance of Precip.
Yesterday
High -- | Low -- °F
Precip. -- in
6:58 AM 8:18 PM
Waning Crescent, 10% visible
Pressure 29.98 in
Visibility -9999.0 miles
Clouds
Dew Point 61 °F
Humidity 92%
Rainfall 0.00 in
Snow Depth Not available.
UV 0.0 out of 12
Pollen Not available.
Air Quality Not available.
Flu Activity Not available.
METAR LPFR 220330Z 31006KT CAVOK 18/12 Q1015

More Conditions Fewer Conditions

Pressure 29.98 in
Visibility -9999.0 miles
Clouds
Dew Point 61 °F
Humidity 92%
Rainfall 0.00 in
Snow Depth Not available.
UV 0.0 out of 12
Pollen Not available.
Air Quality Not available.
Flu Activity Not available.
METAR LPFR 220330Z 31006KT CAVOK 18/12 Q1015

More Conditions Fewer Conditions

10-Day Weather Forecast

Almanac

Astronomy

Aug. 22, 2014 Rise Set
Actual Time 6:58 AM WEST 8:18 PM WEST
Civil Twilight 6:31 AM WEST 8:45 PM WEST
Nautical Twilight 5:58 AM WEST 9:18 PM WEST
Astronomical Twilight 5:24 AM WEST 9:51 PM WEST
Moon 4:10 AM WEST 6:16 PM WEST
Length of Visible Light 14h 14m
Length of Day
13h 20m
Tomorrow will be 2m 11s shorter.
Waning Crescent, 10% of the Moon is Illuminated
Today
Waning Crescent
Aug 25
New
Sep 2
First Quarter
Sep 8
Full
Sep 15
Last Quarter

Yesterday's Extremes

Country Highs Country Lows

Community

WunderPhotos

Upload Photos

1,746,125 photos uploaded!

Nearby

Snow Depth

Not available.

Earthquake Activity

City Distance Mag. Time & Date
No recent earthquake activity has been reported nearby.
Minimum magnitude displayed is 2.5.

Coastal Water Temperatures

Place Temperature
No Stations Reporting

Nearby Weather Stations